Matlock, IA (51244)

8:28 PM CDT on April 20, 2015 (GMT -0500)
Sheldon Municipal | | Change Station
CLOSE
Current Station
Airport
Location: Sheldon,
Elevation: 1417 ft
Nearby Weather Stations
Active Advisory: Special Statement Active Notice: Public Information Statement

Elev 1417 ft 43.21 °N, 95.84 °W | Updated 13 minutes ago

Clear
Clear
46 °F
Feels Like 40 °F
N
16
Wind Variable Wind from NW

Today
High -- | Low -- °F
--% Chance of Precip.
Yesterday
High -- | Low -- °F
Precip. -- in
6:34 AM 8:12 PM
Waxing Crescent, 7% visible
Pressure 29.67 in
Visibility 10.0 miles
Clouds Scattered Clouds 7500 ft
Windchill 40 °F
Dew Point 23 °F
Humidity 40%
Rainfall 0.00 in
Snow Depth Not available.
UV 0 out of 12
Pollen 11.10 out of 12
Air Quality Not available.
Flu Activity Local Activity
METAR KSHL 210115Z AUTO 31014KT 10SM SCT075 08/M05 A2967 RMK AO2

More Conditions Fewer Conditions

Pressure 29.67 in
Visibility 10.0 miles
Clouds Scattered Clouds 7500 ft
Windchill 40 °F
Dew Point 23 °F
Humidity 40%
Rainfall 0.00 in
Snow Depth Not available.
UV 0 out of 12
Pollen 11.10 out of 12
Air Quality Not available.
Flu Activity Local Activity
METAR KSHL 210115Z AUTO 31014KT 10SM SCT075 08/M05 A2967 RMK AO2

More Conditions Fewer Conditions

10-Day Weather Forecast

Almanac

Astronomy

Apr. 20, 2015 Rise Set
Actual Time
Civil Twilight
Nautical Twilight
Astronomical Twilight
Moon
Length of Visible Light
Length of Day
Tomorrow will be .
, % of the Moon is Illuminated

Today's Extremes

State Highs State Lows

Community

WunderPhotos

Upload Photos

1,815,274 photos uploaded!

WunderBlogs® & News

Nearby

Air Quality

  Air Quality AQ Index Pollutant
Not available.

Snow Depth

Station Depth Elevation

Earthquake Activity

City Distance Mag. Time & Date
Minimum magnitude displayed is 2.5.

Coastal Water Temperatures

Place Temperature

Stations

Nearby Weather Stations

Station Location Temp. Windchill Dew Point Humidity Wind Precip. Elev Updated Type
                   
Special Statement
Statement as of 2:43 PM CDT on April 20, 2015

... Very high fire danger expected again Tuesday afternoon...

Dry conditions... combined with rather low humidity values... and
gusty northerly winds will combine to create very high fire danger on
Tuesday. Winds Tuesday afternoon may gust above 30 mph.

Any burning activities should be postponed until better weather
conditions develop. Those with outdoor activities should use extra
caution when working outside... as any spark could lead to wildfire
development.


Dux